Terminal Aerodrome Forecast
Issued by NWS

Home | Current Version | Previous Version | Text Only | Print | Product List | Glossary On
Versions: 1 2 3 4 5 6 7 8 9 10 11 12
658
FTUS44 KBMX 290520
TAFMGM
TAF
KMGM 290520Z 2906/3006 34003KT P6SM SCT060 BKN080
     FM291600 07011KT P6SM SCT050
     FM300100 06003KT P6SM SCT250=

USA.gov is the U.S. government's official web portal to all federal, state and local government web resources and services.